sensor_id;sensor_type;location;lat;lon;timestamp;pressure;altitude;pressure_sealevel;temperature;humidity
46303;BME280;32029;51.358;5.628;2022-11-15T00:01:08;100588.72;;;12.07;88.41
46303;BME280;32029;51.358;5.628;2022-11-15T00:03:37;100550.75;;;11.89;88.35
46303;BME280;32029;51.358;5.628;2022-11-15T00:06:08;100604.72;;;12.25;88.68
46303;BME280;32029;51.358;5.628;2022-11-15T00:08:38;100599.63;;;12.29;88.60
46303;BME280;32029;51.358;5.628;2022-11-15T00:11:09;100598.19;;;12.33;88.26
46303;BME280;32029;51.358;5.628;2022-11-15T00:13:37;100561.47;;;12.12;88.49
46303;BME280;32029;51.358;5.628;2022-11-15T00:16:04;100594.59;;;12.39;88.51
46303;BME280;32029;51.358;5.628;2022-11-15T00:18:32;100564.06;;;12.27;88.49
46303;BME280;32029;51.358;5.628;2022-11-15T00:21:05;100584.69;;;12.44;88.63
46303;BME280;32029;51.358;5.628;2022-11-15T00:23:33;100587.84;;;12.48;88.72
46303;BME280;32029;51.358;5.628;2022-11-15T00:26:00;100540.56;;;12.24;88.67
46303;BME280;32029;51.358;5.628;2022-11-15T00:28:28;100564.13;;;12.40;88.92
46303;BME280;32029;51.358;5.628;2022-11-15T00:31:04;100578.56;;;12.49;88.79
46303;BME280;32029;51.358;5.628;2022-11-15T00:33:31;100557.78;;;12.40;88.96
46303;BME280;32029;51.358;5.628;2022-11-15T00:36:07;100567.56;;;12.49;89.11
46303;BME280;32029;51.358;5.628;2022-11-15T00:38:39;100587.09;;;12.61;89.30
46303;BME280;32029;51.358;5.628;2022-11-15T00:41:08;100569.72;;;12.60;89.41
46303;BME280;32029;51.358;5.628;2022-11-15T00:43:36;100581.56;;;12.67;89.38
46303;BME280;32029;51.358;5.628;2022-11-15T00:46:05;100548.31;;;12.49;89.33
46303;BME280;32029;51.358;5.628;2022-11-15T00:48:32;100581.81;;;12.72;89.63
46303;BME280;32029;51.358;5.628;2022-11-15T00:51:00;100578.41;;;12.70;89.68
46303;BME280;32029;51.358;5.628;2022-11-15T00:53:27;100571.84;;;12.71;89.61
46303;BME280;32029;51.358;5.628;2022-11-15T00:55:54;100525.63;;;12.47;89.86
46303;BME280;32029;51.358;5.628;2022-11-15T00:58:21;100545.16;;;12.65;89.90
46303;BME280;32029;51.358;5.628;2022-11-15T01:00:47;100520.59;;;12.57;89.95
46303;BME280;32029;51.358;5.628;2022-11-15T01:03:14;100574.88;;;12.90;89.98
46303;BME280;32029;51.358;5.628;2022-11-15T01:05:41;100574.44;;;12.93;90.14
46303;BME280;32029;51.358;5.628;2022-11-15T01:08:15;100575.06;;;12.95;90.29
46303;BME280;32029;51.358;5.628;2022-11-15T01:10:42;100566.63;;;12.96;90.07
46303;BME280;32029;51.358;5.628;2022-11-15T01:13:10;100561.97;;;12.97;90.10
46303;BME280;32029;51.358;5.628;2022-11-15T01:15:41;100536.31;;;12.77;90.25
46303;BME280;32029;51.358;5.628;2022-11-15T01:18:09;100553.06;;;12.88;90.45
46303;BME280;32029;51.358;5.628;2022-11-15T01:20:41;100568.13;;;12.99;90.80
46303;BME280;32029;51.358;5.628;2022-11-15T01:23:09;100561.31;;;13.02;90.97
46303;BME280;32029;51.358;5.628;2022-11-15T01:25:37;100560.28;;;12.96;90.88
46303;BME280;32029;51.358;5.628;2022-11-15T01:28:04;100559.00;;;13.05;91.12
46303;BME280;32029;51.358;5.628;2022-11-15T01:30:31;100550.75;;;13.05;91.23
46303;BME280;32029;51.358;5.628;2022-11-15T01:32:59;100562.41;;;13.07;91.61
46303;BME280;32029;51.358;5.628;2022-11-15T01:35:28;100559.22;;;13.10;91.84
46303;BME280;32029;51.358;5.628;2022-11-15T01:37:54;100553.50;;;13.12;91.89
46303;BME280;32029;51.358;5.628;2022-11-15T01:40:21;100493.94;;;12.78;91.90
46303;BME280;32029;51.358;5.628;2022-11-15T01:42:49;100469.38;;;12.69;92.12
46303;BME280;32029;51.358;5.628;2022-11-15T01:45:17;100541.19;;;13.14;92.20
46303;BME280;32029;51.358;5.628;2022-11-15T01:47:49;100549.94;;;13.24;92.49
46303;BME280;32029;51.358;5.628;2022-11-15T01:50:23;100513.88;;;12.99;92.50
46303;BME280;32029;51.358;5.628;2022-11-15T01:52:51;100551.22;;;13.29;92.23
46303;BME280;32029;51.358;5.628;2022-11-15T01:55:22;100544.63;;;13.30;92.32
46303;BME280;32029;51.358;5.628;2022-11-15T01:57:55;100495.66;;;13.05;92.29
46303;BME280;32029;51.358;5.628;2022-11-15T02:00:23;100490.78;;;13.00;92.62
46303;BME280;32029;51.358;5.628;2022-11-15T02:02:50;100507.53;;;13.12;92.61
46303;BME280;32029;51.358;5.628;2022-11-15T02:05:18;100510.91;;;13.14;92.56
46303;BME280;32029;51.358;5.628;2022-11-15T02:07:47;100553.34;;;13.40;92.79
46303;BME280;32029;51.358;5.628;2022-11-15T02:10:21;100546.34;;;13.44;93.20
46303;BME280;32029;51.358;5.628;2022-11-15T02:12:51;100542.31;;;13.46;93.18
46303;BME280;32029;51.358;5.628;2022-11-15T02:15:21;100523.44;;;13.50;94.01
46303;BME280;32029;51.358;5.628;2022-11-15T02:18:11;100530.66;;;13.51;94.25
46303;BME280;32029;51.358;5.628;2022-11-15T02:23:36;100522.56;;;13.49;94.68
46303;BME280;32029;51.358;5.628;2022-11-15T02:29:01;100533.38;;;13.64;94.83
46303;BME280;32029;51.358;5.628;2022-11-15T02:31:50;100538.47;;;13.67;94.96
46303;BME280;32029;51.358;5.628;2022-11-15T02:34:40;100534.22;;;13.71;94.87
46303;BME280;32029;51.358;5.628;2022-11-15T02:37:17;100530.81;;;13.76;95.08
46303;BME280;32029;51.358;5.628;2022-11-15T02:39:51;100524.03;;;13.79;95.35
46303;BME280;32029;51.358;5.628;2022-11-15T02:42:27;100525.28;;;13.83;95.52
46303;BME280;32029;51.358;5.628;2022-11-15T02:45:24;100526.53;;;13.87;95.36
46303;BME280;32029;51.358;5.628;2022-11-15T02:47:56;100527.19;;;13.89;95.18
46303;BME280;32029;51.358;5.628;2022-11-15T02:50:29;100513.41;;;13.89;95.49
46303;BME280;32029;51.358;5.628;2022-11-15T02:52:56;100493.88;;;13.84;95.20
46303;BME280;32029;51.358;5.628;2022-11-15T02:58:48;100484.09;;;13.94;95.47
46303;BME280;32029;51.358;5.628;2022-11-15T03:02:18;100470.97;;;13.90;95.25
46303;BME280;32029;51.358;5.628;2022-11-15T03:04:53;100495.88;;;14.15;95.76
46303;BME280;32029;51.358;5.628;2022-11-15T03:07:31;100491.63;;;14.19;95.35
46303;BME280;32029;51.358;5.628;2022-11-15T03:10:08;100490.34;;;14.21;95.33
46303;BME280;32029;51.358;5.628;2022-11-15T03:12:43;100442.69;;;14.01;95.13
46303;BME280;32029;51.358;5.628;2022-11-15T03:15:28;100486.09;;;14.26;95.23
46303;BME280;32029;51.358;5.628;2022-11-15T03:18:02;100474.63;;;14.29;95.27
46303;BME280;32029;51.358;5.628;2022-11-15T03:20:32;100480.53;;;14.32;95.22
46303;BME280;32029;51.358;5.628;2022-11-15T03:23:05;100479.22;;;14.35;95.10
46303;BME280;32029;51.358;5.628;2022-11-15T03:25:40;100460.16;;;14.27;95.35
46303;BME280;32029;51.358;5.628;2022-11-15T03:28:12;100452.16;;;14.18;95.20
46303;BME280;32029;51.358;5.628;2022-11-15T03:30:41;100465.69;;;14.27;95.23
46303;BME280;32029;51.358;5.628;2022-11-15T03:33:10;100450.28;;;14.12;95.05
46303;BME280;32029;51.358;5.628;2022-11-15T03:35:43;100446.63;;;14.18;95.20
46303;BME280;32029;51.358;5.628;2022-11-15T03:38:24;100479.63;;;14.45;95.22
46303;BME280;32029;51.358;5.628;2022-11-15T03:43:50;100491.50;;;14.52;95.20
46303;BME280;32029;51.358;5.628;2022-11-15T03:46:26;100419.94;;;14.12;94.84
46303;BME280;32029;51.358;5.628;2022-11-15T03:49:09;100433.66;;;14.26;94.87
46303;BME280;32029;51.358;5.628;2022-11-15T03:51:38;100459.03;;;14.41;94.80
46303;BME280;32029;51.358;5.628;2022-11-15T03:54:05;100488.47;;;14.60;94.91
46303;BME280;32029;51.358;5.628;2022-11-15T03:56:33;100477.88;;;14.57;94.78
46303;BME280;32029;51.358;5.628;2022-11-15T03:59:00;100479.09;;;14.68;94.55
46303;BME280;32029;51.358;5.628;2022-11-15T04:01:28;100482.28;;;14.65;94.47
46303;BME280;32029;51.358;5.628;2022-11-15T04:03:56;100487.97;;;14.70;94.49
46303;BME280;32029;51.358;5.628;2022-11-15T04:06:23;100480.31;;;14.72;94.28
46303;BME280;32029;51.358;5.628;2022-11-15T04:08:50;100485.63;;;14.74;94.34
46303;BME280;32029;51.358;5.628;2022-11-15T04:11:17;100450.09;;;14.52;94.39
46303;BME280;32029;51.358;5.628;2022-11-15T04:13:44;100476.09;;;14.69;94.41
46303;BME280;32029;51.358;5.628;2022-11-15T04:16:10;100446.88;;;14.55;94.12
46303;BME280;32029;51.358;5.628;2022-11-15T04:18:38;100481.53;;;14.83;94.07
46303;BME280;32029;51.358;5.628;2022-11-15T04:21:05;100484.06;;;14.84;93.93
46303;BME280;32029;51.358;5.628;2022-11-15T04:23:51;100483.22;;;14.84;93.90
46303;BME280;32029;51.358;5.628;2022-11-15T04:26:35;100482.59;;;14.82;94.10
46303;BME280;32029;51.358;5.628;2022-11-15T04:29:03;100485.53;;;14.87;93.97
46303;BME280;32029;51.358;5.628;2022-11-15T04:31:49;100482.16;;;14.85;93.93
46303;BME280;32029;51.358;5.628;2022-11-15T04:34:17;100483.38;;;14.89;94.11
46303;BME280;32029;51.358;5.628;2022-11-15T04:36:45;100477.06;;;14.82;94.21
46303;BME280;32029;51.358;5.628;2022-11-15T04:39:32;100465.69;;;14.72;94.17
46303;BME280;32029;51.358;5.628;2022-11-15T04:41:59;100471.13;;;14.78;94.37
46303;BME280;32029;51.358;5.628;2022-11-15T04:44:26;100478.78;;;14.83;94.68
46303;BME280;32029;51.358;5.628;2022-11-15T04:46:53;100497.00;;;14.90;94.88
46303;BME280;32029;51.358;5.628;2022-11-15T04:49:20;100475.81;;;14.78;94.96
46303;BME280;32029;51.358;5.628;2022-11-15T04:51:47;100495.28;;;14.89;94.85
46303;BME280;32029;51.358;5.628;2022-11-15T04:54:15;100501.03;;;14.88;95.00
46303;BME280;32029;51.358;5.628;2022-11-15T04:56:42;100470.13;;;14.73;95.21
46303;BME280;32029;51.358;5.628;2022-11-15T04:59:10;100491.66;;;14.89;95.17
46303;BME280;32029;51.358;5.628;2022-11-15T05:01:38;100487.22;;;14.88;95.22
46303;BME280;32029;51.358;5.628;2022-11-15T05:04:07;100484.47;;;14.88;95.35
46303;BME280;32029;51.358;5.628;2022-11-15T05:06:50;100479.78;;;14.88;95.46
46303;BME280;32029;51.358;5.628;2022-11-15T05:09:19;100456.03;;;14.81;95.39
46303;BME280;32029;51.358;5.628;2022-11-15T05:11:49;100446.94;;;14.74;95.26
46303;BME280;32029;51.358;5.628;2022-11-15T05:14:17;100464.88;;;14.89;95.26
46303;BME280;32029;51.358;5.628;2022-11-15T05:16:45;100466.81;;;14.89;95.39
46303;BME280;32029;51.358;5.628;2022-11-15T05:19:11;100472.97;;;14.91;95.24
46303;BME280;32029;51.358;5.628;2022-11-15T05:21:38;100472.97;;;14.91;95.19
46303;BME280;32029;51.358;5.628;2022-11-15T05:24:08;100472.97;;;14.91;95.42
46303;BME280;32029;51.358;5.628;2022-11-15T05:26:37;100468.28;;;14.91;95.18
46303;BME280;32029;51.358;5.628;2022-11-15T05:29:03;100444.59;;;14.77;95.09
46303;BME280;32029;51.358;5.628;2022-11-15T05:31:31;100445.44;;;14.78;95.23
46303;BME280;32029;51.358;5.628;2022-11-15T05:34:04;100465.28;;;14.93;95.31
46303;BME280;32029;51.358;5.628;2022-11-15T05:36:38;100449.63;;;14.87;95.07
46303;BME280;32029;51.358;5.628;2022-11-15T05:39:08;100446.69;;;14.82;95.42
46303;BME280;32029;51.358;5.628;2022-11-15T05:41:51;100407.78;;;14.58;95.23
46303;BME280;32029;51.358;5.628;2022-11-15T05:44:22;100463.16;;;14.95;95.31
46303;BME280;32029;51.358;5.628;2022-11-15T05:46:51;100423.63;;;14.69;95.30
46303;BME280;32029;51.358;5.628;2022-11-15T05:49:25;100421.25;;;14.73;95.32
46303;BME280;32029;51.358;5.628;2022-11-15T05:51:54;100420.47;;;14.66;95.25
46303;BME280;32029;51.358;5.628;2022-11-15T05:54:22;100452.78;;;14.90;95.87
46303;BME280;32029;51.358;5.628;2022-11-15T05:56:51;100401.81;;;14.61;95.51
46303;BME280;32029;51.358;5.628;2022-11-15T05:59:18;100473.78;;;14.98;95.55
46303;BME280;32029;51.358;5.628;2022-11-15T06:01:45;100474.78;;;14.79;95.23
46303;BME280;32029;51.358;5.628;2022-11-15T06:04:12;100484.56;;;14.75;96.29
46303;BME280;32029;51.358;5.628;2022-11-15T06:06:39;100490.81;;;14.63;96.69
46303;BME280;32029;51.358;5.628;2022-11-15T06:09:07;100486.81;;;14.53;97.83
46303;BME280;32029;51.358;5.628;2022-11-15T06:11:33;100449.81;;;14.22;98.54
46303;BME280;32029;51.358;5.628;2022-11-15T06:14:01;100494.03;;;14.47;98.56
46303;BME280;32029;51.358;5.628;2022-11-15T06:16:28;100493.19;;;14.46;99.06
46303;BME280;32029;51.358;5.628;2022-11-15T06:18:55;100486.00;;;14.39;98.18
46303;BME280;32029;51.358;5.628;2022-11-15T06:21:22;100486.25;;;14.31;98.01
46303;BME280;32029;51.358;5.628;2022-11-15T06:23:48;100479.75;;;14.18;98.67
46303;BME280;32029;51.358;5.628;2022-11-15T06:26:15;100455.59;;;14.07;98.87
46303;BME280;32029;51.358;5.628;2022-11-15T06:28:42;100481.41;;;14.26;98.88
46303;BME280;32029;51.358;5.628;2022-11-15T06:31:11;100445.63;;;14.06;98.82
46303;BME280;32029;51.358;5.628;2022-11-15T06:33:38;100504.31;;;14.33;98.80
46303;BME280;32029;51.358;5.628;2022-11-15T06:36:08;100474.25;;;14.12;98.78
46303;BME280;32029;51.358;5.628;2022-11-15T06:38:36;100483.16;;;14.20;99.22
46303;BME280;32029;51.358;5.628;2022-11-15T06:41:05;100485.06;;;14.20;98.91
46303;BME280;32029;51.358;5.628;2022-11-15T06:43:32;100460.94;;;14.02;97.97
46303;BME280;32029;51.358;5.628;2022-11-15T06:45:59;100449.31;;;13.87;97.68
46303;BME280;32029;51.358;5.628;2022-11-15T06:48:27;100426.88;;;13.77;97.63
46303;BME280;32029;51.358;5.628;2022-11-15T06:50:56;100501.63;;;14.13;98.05
46303;BME280;32029;51.358;5.628;2022-11-15T06:53:25;100494.03;;;14.09;98.51
46303;BME280;32029;51.358;5.628;2022-11-15T06:55:52;100518.59;;;14.17;98.24
46303;BME280;32029;51.358;5.628;2022-11-15T06:58:20;100513.94;;;14.17;98.30
46303;BME280;32029;51.358;5.628;2022-11-15T07:00:47;100498.47;;;14.03;98.29
46303;BME280;32029;51.358;5.628;2022-11-15T07:03:14;100520.72;;;14.21;98.23
46303;BME280;32029;51.358;5.628;2022-11-15T07:05:40;100473.50;;;13.91;97.74
46303;BME280;32029;51.358;5.628;2022-11-15T07:08:07;100488.34;;;13.97;98.01
46303;BME280;32029;51.358;5.628;2022-11-15T07:10:34;100506.31;;;14.06;98.30
46303;BME280;32029;51.358;5.628;2022-11-15T07:13:01;100498.72;;;14.02;97.76
46303;BME280;32029;51.358;5.628;2022-11-15T07:15:28;100502.75;;;13.99;97.71
46303;BME280;32029;51.358;5.628;2022-11-15T07:17:54;100520.78;;;14.08;97.48
46303;BME280;32029;51.358;5.628;2022-11-15T07:20:21;100520.97;;;14.07;97.28
46303;BME280;32029;51.358;5.628;2022-11-15T07:22:48;100477.53;;;13.89;97.58
46303;BME280;32029;51.358;5.628;2022-11-15T07:25:14;100516.94;;;14.09;97.29
46303;BME280;32029;51.358;5.628;2022-11-15T07:27:41;100540.44;;;14.25;97.45
46303;BME280;32029;51.358;5.628;2022-11-15T07:30:09;100535.75;;;14.26;97.37
46303;BME280;32029;51.358;5.628;2022-11-15T07:32:36;100529.00;;;14.15;96.93
46303;BME280;32029;51.358;5.628;2022-11-15T07:35:04;100488.38;;;13.84;96.75
46303;BME280;32029;51.358;5.628;2022-11-15T07:37:31;100551.50;;;14.18;96.29
46303;BME280;32029;51.358;5.628;2022-11-15T07:39:59;100538.38;;;14.07;96.37
46303;BME280;32029;51.358;5.628;2022-11-15T07:42:25;100526.94;;;13.97;96.54
46303;BME280;32029;51.358;5.628;2022-11-15T07:45:10;100501.13;;;13.85;96.96
46303;BME280;32029;51.358;5.628;2022-11-15T07:47:37;100562.53;;;14.18;96.82
46303;BME280;32029;51.358;5.628;2022-11-15T07:50:04;100520.59;;;13.96;96.30
46303;BME280;32029;51.358;5.628;2022-11-15T07:52:31;100519.28;;;13.99;96.19
46303;BME280;32029;51.358;5.628;2022-11-15T07:54:57;100541.34;;;14.12;95.97
46303;BME280;32029;51.358;5.628;2022-11-15T07:57:24;100534.56;;;14.08;95.78
46303;BME280;32029;51.358;5.628;2022-11-15T07:59:51;100508.28;;;13.92;95.74
46303;BME280;32029;51.358;5.628;2022-11-15T08:02:17;100498.78;;;13.82;95.41
46303;BME280;32029;51.358;5.628;2022-11-15T08:04:44;100532.00;;;14.00;95.49
46303;BME280;32029;51.358;5.628;2022-11-15T08:07:11;100517.66;;;13.78;95.86
46303;BME280;32029;51.358;5.628;2022-11-15T08:09:37;100463.47;;;13.39;95.39
46303;BME280;32029;51.358;5.628;2022-11-15T08:12:04;100504.53;;;13.60;95.54
46303;BME280;32029;51.358;5.628;2022-11-15T08:14:32;100558.78;;;13.93;95.80
46303;BME280;32029;51.358;5.628;2022-11-15T08:16:59;100553.28;;;13.93;95.73
46303;BME280;32029;51.358;5.628;2022-11-15T08:19:26;100519.34;;;13.72;96.54
46303;BME280;32029;51.358;5.628;2022-11-15T08:21:53;100552.19;;;14.01;96.86
46303;BME280;32029;51.358;5.628;2022-11-15T08:24:19;100509.16;;;13.80;96.60
46303;BME280;32029;51.358;5.628;2022-11-15T08:26:46;100561.50;;;14.13;96.64
46303;BME280;32029;51.358;5.628;2022-11-15T08:29:13;100532.00;;;14.07;96.88
46303;BME280;32029;51.358;5.628;2022-11-15T08:31:40;100504.88;;;13.97;96.63
46303;BME280;32029;51.358;5.628;2022-11-15T08:34:06;100505.69;;;14.04;96.43
46303;BME280;32029;51.358;5.628;2022-11-15T08:36:33;100477.53;;;13.89;95.71
46303;BME280;32029;51.358;5.628;2022-11-15T08:39:00;100528.31;;;14.26;95.87
46303;BME280;32029;51.358;5.628;2022-11-15T08:41:33;100530.84;;;14.34;95.57
46303;BME280;32029;51.358;5.628;2022-11-15T08:44:02;100507.75;;;14.22;95.53
46303;BME280;32029;51.358;5.628;2022-11-15T08:46:28;100459.09;;;13.89;94.84
46303;BME280;32029;51.358;5.628;2022-11-15T08:48:55;100510.69;;;14.27;94.93
46303;BME280;32029;51.358;5.628;2022-11-15T08:51:22;100465.63;;;13.95;94.48
46303;BME280;32029;51.358;5.628;2022-11-15T08:53:48;100517.09;;;14.28;94.94
46303;BME280;32029;51.358;5.628;2022-11-15T08:56:15;100462.22;;;14.00;95.02
46303;BME280;32029;51.358;5.628;2022-11-15T08:58:42;100511.31;;;14.36;94.54
46303;BME280;32029;51.358;5.628;2022-11-15T09:01:18;100517.88;;;14.35;94.53
46303;BME280;32029;51.358;5.628;2022-11-15T09:03:45;100461.38;;;13.99;94.34
46303;BME280;32029;51.358;5.628;2022-11-15T09:06:12;100509.59;;;14.35;94.64
46303;BME280;32029;51.358;5.628;2022-11-15T09:08:38;100471.03;;;14.21;94.44
46303;BME280;32029;51.358;5.628;2022-11-15T09:11:07;100417.06;;;13.94;94.09
46303;BME280;32029;51.358;5.628;2022-11-15T09:13:34;100412.19;;;13.89;93.44
46303;BME280;32029;51.358;5.628;2022-11-15T09:16:03;100462.75;;;14.21;92.64
46303;BME280;32029;51.358;5.628;2022-11-15T09:18:31;100451.97;;;14.13;92.42
46303;BME280;32029;51.358;5.628;2022-11-15T09:20:58;100460.25;;;14.13;92.04
46303;BME280;32029;51.358;5.628;2022-11-15T09:23:26;100455.34;;;14.15;91.55
46303;BME280;32029;51.358;5.628;2022-11-15T09:26:01;100444.53;;;14.14;92.02
46303;BME280;32029;51.358;5.628;2022-11-15T09:28:29;100472.94;;;14.28;92.17
46303;BME280;32029;51.358;5.628;2022-11-15T09:30:57;100470.94;;;14.35;92.06
46303;BME280;32029;51.358;5.628;2022-11-15T09:33:25;100459.75;;;14.23;91.21
46303;BME280;32029;51.358;5.628;2022-11-15T09:35:52;100469.94;;;14.29;90.62
46303;BME280;32029;51.358;5.628;2022-11-15T09:38:20;100454.44;;;14.28;90.61
46303;BME280;32029;51.358;5.628;2022-11-15T09:40:51;100462.50;;;14.30;89.79
46303;BME280;32029;51.358;5.628;2022-11-15T09:43:24;100470.53;;;14.38;89.84
46303;BME280;32029;51.358;5.628;2022-11-15T09:46:37;100468.84;;;14.37;88.76
46303;BME280;32029;51.358;5.628;2022-11-15T09:49:09;100469.03;;;14.35;86.93
46303;BME280;32029;51.358;5.628;2022-11-15T09:51:40;100469.09;;;14.29;86.89
46303;BME280;32029;51.358;5.628;2022-11-15T09:54:32;100469.28;;;14.27;86.71
46303;BME280;32029;51.358;5.628;2022-11-15T10:05:03;100413.44;;;13.93;85.12
46303;BME280;32029;51.358;5.628;2022-11-15T10:07:48;100449.13;;;14.27;85.62
46303;BME280;32029;51.358;5.628;2022-11-15T10:12:51;100429.25;;;14.11;84.48
46303;BME280;32029;51.358;5.628;2022-11-15T10:15:19;100444.94;;;14.24;84.64
46303;BME280;32029;51.358;5.628;2022-11-15T10:18:30;100436.81;;;14.29;84.15
46303;BME280;32029;51.358;5.628;2022-11-15T10:21:19;100397.91;;;13.99;83.22
46303;BME280;32029;51.358;5.628;2022-11-15T10:23:48;100445.72;;;14.31;82.53
46303;BME280;32029;51.358;5.628;2022-11-15T10:26:16;100443.81;;;14.32;82.94
46303;BME280;32029;51.358;5.628;2022-11-15T10:28:43;100435.31;;;14.33;82.88
46303;BME280;32029;51.358;5.628;2022-11-15T10:31:27;100432.72;;;14.38;83.42
46303;BME280;32029;51.358;5.628;2022-11-15T10:36:57;100419.75;;;14.39;80.82
46303;BME280;32029;51.358;5.628;2022-11-15T10:39:25;100364.66;;;13.94;80.73
46303;BME280;32029;51.358;5.628;2022-11-15T10:41:52;100361.47;;;13.97;81.25
46303;BME280;32029;51.358;5.628;2022-11-15T10:44:30;100430.38;;;14.42;81.17
46303;BME280;32029;51.358;5.628;2022-11-15T10:49:29;100393.34;;;14.25;80.40
46303;BME280;32029;51.358;5.628;2022-11-15T10:52:04;100421.84;;;14.50;81.07
46303;BME280;32029;51.358;5.628;2022-11-15T10:54:45;100397.69;;;14.39;80.88
46303;BME280;32029;51.358;5.628;2022-11-15T10:57:17;100398.47;;;14.46;79.37
46303;BME280;32029;51.358;5.628;2022-11-15T10:59:49;100409.13;;;14.49;80.05
46303;BME280;32029;51.358;5.628;2022-11-15T11:02:37;100402.72;;;14.55;79.97
46303;BME280;32029;51.358;5.628;2022-11-15T11:08:02;100349.31;;;14.36;80.14
46303;BME280;32029;51.358;5.628;2022-11-15T11:10:29;100384.78;;;14.64;80.37
46303;BME280;32029;51.358;5.628;2022-11-15T11:13:12;100349.63;;;14.46;80.49
46303;BME280;32029;51.358;5.628;2022-11-15T11:15:41;100355.09;;;14.60;81.06
46303;BME280;32029;51.358;5.628;2022-11-15T11:18:34;100371.25;;;14.81;79.68
46303;BME280;32029;51.358;5.628;2022-11-15T11:21:09;100362.53;;;14.84;79.45
46303;BME280;32029;51.358;5.628;2022-11-15T11:26:50;100349.28;;;14.93;78.21
46303;BME280;32029;51.358;5.628;2022-11-15T11:33:00;100341.16;;;14.98;77.54
46303;BME280;32029;51.358;5.628;2022-11-15T11:35:39;100294.16;;;14.80;77.18
46303;BME280;32029;51.358;5.628;2022-11-15T11:38:47;100308.06;;;14.91;76.36
46303;BME280;32029;51.358;5.628;2022-11-15T11:41:49;100329.06;;;15.17;77.15
46303;BME280;32029;51.358;5.628;2022-11-15T11:44:34;100296.50;;;15.19;76.61
46303;BME280;32029;51.358;5.628;2022-11-15T11:47:10;100304.03;;;15.31;77.13
46303;BME280;32029;51.358;5.628;2022-11-15T11:49:49;100310.00;;;15.46;76.24
46303;BME280;32029;51.358;5.628;2022-11-15T11:52:23;100282.81;;;15.43;76.27
46303;BME280;32029;51.358;5.628;2022-11-15T11:55:16;100243.97;;;15.38;75.96
46303;BME280;32029;51.358;5.628;2022-11-15T12:00:39;100292.06;;;15.85;74.20
46303;BME280;32029;51.358;5.628;2022-11-15T12:05:41;100232.75;;;15.63;72.64
46303;BME280;32029;51.358;5.628;2022-11-15T12:11:03;100269.00;;;15.91;72.67
46303;BME280;32029;51.358;5.628;2022-11-15T12:13:31;100237.78;;;15.73;72.45
46303;BME280;32029;51.358;5.628;2022-11-15T12:16:08;100221.19;;;15.73;71.58
46303;BME280;32029;51.358;5.628;2022-11-15T12:18:37;100240.25;;;15.92;71.91
46303;BME280;32029;51.358;5.628;2022-11-15T12:21:13;100220.97;;;15.86;71.76
46303;BME280;32029;51.358;5.628;2022-11-15T12:23:46;100227.53;;;16.03;71.49
46303;BME280;32029;51.358;5.628;2022-11-15T12:26:20;100217.38;;;15.97;71.16
46303;BME280;32029;51.358;5.628;2022-11-15T12:28:53;100196.56;;;15.95;71.03
46303;BME280;32029;51.358;5.628;2022-11-15T12:31:35;100182.97;;;15.93;71.01
46303;BME280;32029;51.358;5.628;2022-11-15T12:36:49;100181.44;;;16.09;70.73
46303;BME280;32029;51.358;5.628;2022-11-15T12:39:17;100178.91;;;16.07;70.16
46303;BME280;32029;51.358;5.628;2022-11-15T12:46:58;100208.88;;;16.34;69.87
46303;BME280;32029;51.358;5.628;2022-11-15T12:52:04;100179.75;;;16.20;69.33
46303;BME280;32029;51.358;5.628;2022-11-15T13:02:43;100104.19;;;15.96;68.82
46303;BME280;32029;51.358;5.628;2022-11-15T13:17:46;100154.47;;;16.63;68.92
46303;BME280;32029;51.358;5.628;2022-11-15T13:25:30;100138.69;;;16.75;67.95
46303;BME280;32029;51.358;5.628;2022-11-15T13:28:11;100125.19;;;16.79;68.25
46303;BME280;32029;51.358;5.628;2022-11-15T13:30:49;100122.50;;;16.84;68.56
46303;BME280;32029;51.358;5.628;2022-11-15T13:33:31;100081.09;;;16.65;68.08
46303;BME280;32029;51.358;5.628;2022-11-15T13:36:09;100107.69;;;16.90;67.95
46303;BME280;32029;51.358;5.628;2022-11-15T13:38:41;100098.03;;;16.93;67.98
46303;BME280;32029;51.358;5.628;2022-11-15T13:41:18;100098.38;;;16.96;67.90
46303;BME280;32029;51.358;5.628;2022-11-15T13:43:48;100111.00;;;17.04;68.13
46303;BME280;32029;51.358;5.628;2022-11-15T13:46:32;100082.09;;;17.00;67.71
46303;BME280;32029;51.358;5.628;2022-11-15T13:49:05;100048.09;;;16.76;67.61
46303;BME280;32029;51.358;5.628;2022-11-15T13:51:36;100090.34;;;17.11;67.40
46303;BME280;32029;51.358;5.628;2022-11-15T13:54:17;100063.09;;;16.92;67.75
46303;BME280;32029;51.358;5.628;2022-11-15T13:59:27;100043.75;;;16.80;67.84
46303;BME280;32029;51.358;5.628;2022-11-15T14:01:56;100031.47;;;16.76;67.64
46303;BME280;32029;51.358;5.628;2022-11-15T14:04:25;100078.25;;;17.01;67.75
46303;BME280;32029;51.358;5.628;2022-11-15T14:06:56;100067.81;;;16.91;68.19
46303;BME280;32029;51.358;5.628;2022-11-15T14:09:30;100066.81;;;16.97;68.25
46303;BME280;32029;51.358;5.628;2022-11-15T14:12:01;100029.66;;;16.81;68.46
46303;BME280;32029;51.358;5.628;2022-11-15T14:14:29;100015.56;;;16.71;68.36
46303;BME280;32029;51.358;5.628;2022-11-15T14:16:58;100055.13;;;16.95;68.34
46303;BME280;32029;51.358;5.628;2022-11-15T14:22:16;100040.09;;;16.91;68.88
46303;BME280;32029;51.358;5.628;2022-11-15T14:25:04;100015.31;;;16.73;68.90
46303;BME280;32029;51.358;5.628;2022-11-15T14:27:32;100037.59;;;16.89;68.80
46303;BME280;32029;51.358;5.628;2022-11-15T14:29:59;100023.25;;;16.81;69.01
46303;BME280;32029;51.358;5.628;2022-11-15T14:32:47;99983.22;;;16.60;69.08
46303;BME280;32029;51.358;5.628;2022-11-15T14:35:18;100020.63;;;16.86;68.90
46303;BME280;32029;51.358;5.628;2022-11-15T14:37:45;100019.78;;;16.85;69.43
46303;BME280;32029;51.358;5.628;2022-11-15T14:40:20;99988.13;;;16.70;69.63